Royal Prince — WCX8037 — position and weather

sailwx.info

Track history (hours):
 
Tides and Currents Weather Stations Pressure Air Temp Water Temp Dewpoint Dewpoint Depression Visibility Wind Speed Wind Dir Waves Ship Positions

Royal Prince

Owner: Golden Gate Scenic Steamship Corp, SAN FRANCISCO, CA. More information available from US FCC via Universal Licensing System and Coast Guard Vessel Documentation Center.

Last reported at 2016-May-24 01:05 UTC. Time now 2016-May-24 09:52 UTC.
Position N 37°49' W 122°25'.

; draft 3 m.

Type: Passenger vessel. MMSI: 366975760.

Date/timePositionNaut miles runAvg speedWind from/ knotsBaromVisibWave heightAir tempDewpointWater temp
2016-May-24 01:05N 37°49' W 122°25'2 3.3
2016-May-24 00:33N 37°50' W 122°27'2 1.6
2016-May-23 23:33N 37°49' W 122°25'1 0.7
2016-May-23 22:33N 37°49' W 122°25'0 0.0
2016-May-23 21:33N 37°49' W 122°25'3 2.9
2016-May-23 20:33N 37°49' W 122°29'3 2.9
2016-May-23 19:33N 37°49' W 122°25'2 1.5
2016-May-23 18:33N 37°49' W 122°27'1 0.9
2016-May-23 17:33N 37°50' W 122°27'2 2.2
2016-May-23 16:33N 37°49' W 122°25'0 0.0
2016-May-23 01:12N 37°49' W 122°25'2 3.4
2016-May-23 00:33N 37°49' W 122°27'2 2.0
2016-May-22 23:33N 37°49' W 122°25'1 0.8
2016-May-22 22:33N 37°49' W 122°25'0 0.1
2016-May-22 21:33N 37°49' W 122°25'3 2.8
2016-May-22 20:33N 37°49' W 122°28'3 2.9
2016-May-22 19:33N 37°49' W 122°25'1 1.3
2016-May-22 18:33N 37°49' W 122°27'1 1.1
2016-May-22 17:33N 37°50' W 122°28'2 0.2
2016-May-22 04:33N 37°49' W 122°25'1 1.0
2016-May-22 03:34N 37°50' W 122°25'3 3.5
2016-May-22 02:34N 37°49' W 122°29'3 3.2
2016-May-22 01:33N 37°49' W 122°25'0 0.0
2016-May-22 00:33N 37°49' W 122°25'1 1.4
2016-May-21 23:33N 37°50' W 122°26'1 1.4
2016-May-21 22:33N 37°49' W 122°25'0 0.0
2016-May-21 21:33N 37°49' W 122°25'3 3.1
2016-May-21 20:34N 37°49' W 122°29'3 3.1
2016-May-21 19:33N 37°49' W 122°25'2 1.7
2016-May-21 18:33N 37°49' W 122°27'1 0.5
2016-May-21 17:33N 37°50' W 122°27'2 2.0
2016-May-21 16:33N 37°49' W 122°25'0 0.0
2016-May-21 01:07N 37°49' W 122°25'2 3.0
2016-May-21 00:33N 37°50' W 122°27'2 1.7
2016-May-20 23:33N 37°49' W 122°25'1 0.6
2016-May-20 22:33N 37°49' W 122°25'0 0.0
2016-May-20 21:33N 37°49' W 122°25'3 3.2
2016-May-20 20:33N 37°49' W 122°29'3 3.1
2016-May-20 19:33N 37°49' W 122°25'2 2.1
2016-May-20 18:33N 37°49' W 122°28'1 0.9
2016-May-20 17:33N 37°50' W 122°27'2 1.8
2016-May-20 16:33N 37°49' W 122°25'0 0.0
2016-May-20 01:27N 37°49' W 122°25'2 2.0
2016-May-20 00:33N 37°50' W 122°27'2 1.5
2016-May-19 23:33N 37°49' W 122°25'0 0.3
2016-May-19 22:33N 37°49' W 122°25'0 0.0
2016-May-19 21:33N 37°49' W 122°25'2 2.3
2016-May-19 20:33N 37°49' W 122°28'2 2.3
2016-May-19 19:33N 37°49' W 122°25'2 2.2
2016-May-19 18:34N 37°49' W 122°28'0 0.5
2016-May-19 17:33N 37°49' W 122°28'2 2.4
2016-May-19 16:33N 37°49' W 122°25'0 0.0
2016-May-19 01:33N 37°49' W 122°25'2 2.1
2016-May-19 00:33N 37°50' W 122°27'4 4.4
2016-May-18 23:33N 37°47' W 122°23'2 2.0
2016-May-18 22:33N 37°49' W 122°24'1 0.8
2016-May-18 21:33N 37°49' W 122°25'3 3.1
2016-May-18 20:33N 37°49' W 122°29'3 3.1
2016-May-18 19:33N 37°49' W 122°25'2 1.5
2016-May-18 18:33N 37°49' W 122°27'1 0.8
2016-May-18 17:33N 37°50' W 122°27'2 0.1
2016-May-18 01:13N 37°49' W 122°25'2 3.3
2016-May-18 00:33N 37°50' W 122°27'2 2.0
2016-May-17 23:33N 37°49' W 122°25'1 0.8
2016-May-17 22:33N 37°49' W 122°25'0 0.2
2016-May-17 21:33N 37°49' W 122°25'3 2.7
2016-May-17 20:33N 37°49' W 122°28'3 2.9
2016-May-17 19:33N 37°49' W 122°25'3 2.6
2016-May-17 18:33N 37°49' W 122°28'1 1.3
2016-May-17 17:33N 37°50' W 122°27'2 0.1
2016-May-17 01:14N 37°49' W 122°25'2 3.6
2016-May-17 00:34N 37°49' W 122°28'3 2.6
2016-May-16 23:33N 37°49' W 122°24'1 0.6
2016-May-16 22:33N 37°49' W 122°25'0 0.0
2016-May-16 21:33N 37°49' W 122°25'2 2.3
2016-May-16 20:34N 37°49' W 122°28'2 2.3
2016-May-16 19:34N 37°49' W 122°25'2 2.4
2016-May-16 18:33N 37°49' W 122°28'1 1.4
2016-May-16 17:34N 37°50' W 122°26'2 0.1
2016-May-16 01:18N 37°49' W 122°25'2 2.7
2016-May-16 00:34N 37°50' W 122°27'2 1.6
2016-May-15 23:34N 37°50' W 122°25'1 0.9
2016-May-15 22:33N 37°49' W 122°25'0 0.0
2016-May-15 21:33N 37°49' W 122°25'3 3.1
2016-May-15 20:34N 37°49' W 122°29'3 3.1
2016-May-15 19:34N 37°49' W 122°25'1 1.1
2016-May-15 18:34N 37°49' W 122°26'1 1.0
2016-May-15 17:33N 37°50' W 122°27'2 0.1
2016-May-15 03:33N 37°49' W 122°25'3 2.7
2016-May-15 02:33N 37°49' W 122°28'4 3.9
2016-May-15 01:33N 37°52' W 122°25'3 3.3
2016-May-15 00:33N 37°49' W 122°25'1 0.7
2016-May-14 23:33N 37°49' W 122°25'1 0.7
2016-May-14 22:33N 37°49' W 122°25'0 0.1
2016-May-14 21:33N 37°49' W 122°25'3 3.0
2016-May-14 20:33N 37°49' W 122°29'3 3.0
2016-May-14 19:33N 37°49' W 122°25'2 2.5
2016-May-14 18:33N 37°49' W 122°28'1 1.0
2016-May-14 17:33N 37°50' W 122°27'2 1.8
2016-May-14 16:33N 37°49' W 122°25'0 0.0
2016-May-14 01:07N 37°49' W 122°25'  
Track history (hours):
 
Tides and Currents Weather Stations Pressure Air Temp Water Temp Dewpoint Dewpoint Depression Visibility Wind Speed Wind Dir Waves Ship Positions

Royal Prince

Owner: Golden Gate Scenic Steamship Corp, SAN FRANCISCO, CA. More information available from US FCC via Universal Licensing System and Coast Guard Vessel Documentation Center.

Last reported at 2016-May-24 01:05 UTC. Time now 2016-May-24 09:52 UTC.
Position N 37°49' W 122°25'.

; draft 3 m.

Type: Passenger vessel. MMSI: 366975760.

Date/timePositionNaut miles runAvg speedWind from/ knotsBaromVisibWave heightAir tempDewpointWater temp
2016-May-24 01:05N 37°49' W 122°25'2 3.3
2016-May-24 00:33N 37°50' W 122°27'2 1.6
2016-May-23 23:33N 37°49' W 122°25'1 0.7
2016-May-23 22:33N 37°49' W 122°25'0 0.0
2016-May-23 21:33N 37°49' W 122°25'3 2.9
2016-May-23 20:33N 37°49' W 122°29'3 2.9
2016-May-23 19:33N 37°49' W 122°25'2 1.5
2016-May-23 18:33N 37°49' W 122°27'1 0.9
2016-May-23 17:33N 37°50' W 122°27'2 2.2
2016-May-23 16:33N 37°49' W 122°25'0 0.0
2016-May-23 01:12N 37°49' W 122°25'2 3.4
2016-May-23 00:33N 37°49' W 122°27'2 2.0
2016-May-22 23:33N 37°49' W 122°25'1 0.8
2016-May-22 22:33N 37°49' W 122°25'0 0.1
2016-May-22 21:33N 37°49' W 122°25'3 2.8
2016-May-22 20:33N 37°49' W 122°28'3 2.9
2016-May-22 19:33N 37°49' W 122°25'1 1.3
2016-May-22 18:33N 37°49' W 122°27'1 1.1
2016-May-22 17:33N 37°50' W 122°28'2 0.2
2016-May-22 04:33N 37°49' W 122°25'1 1.0
2016-May-22 03:34N 37°50' W 122°25'3 3.5
2016-May-22 02:34N 37°49' W 122°29'3 3.2
2016-May-22 01:33N 37°49' W 122°25'0 0.0
2016-May-22 00:33N 37°49' W 122°25'1 1.4
2016-May-21 23:33N 37°50' W 122°26'1 1.4
2016-May-21 22:33N 37°49' W 122°25'0 0.0
2016-May-21 21:33N 37°49' W 122°25'3 3.1
2016-May-21 20:34N 37°49' W 122°29'3 3.1
2016-May-21 19:33N 37°49' W 122°25'2 1.7
2016-May-21 18:33N 37°49' W 122°27'1 0.5
2016-May-21 17:33N 37°50' W 122°27'2 2.0
2016-May-21 16:33N 37°49' W 122°25'0 0.0
2016-May-21 01:07N 37°49' W 122°25'2 3.0
2016-May-21 00:33N 37°50' W 122°27'2 1.7
2016-May-20 23:33N 37°49' W 122°25'1 0.6
2016-May-20 22:33N 37°49' W 122°25'0 0.0
2016-May-20 21:33N 37°49' W 122°25'3 3.2
2016-May-20 20:33N 37°49' W 122°29'3 3.1
2016-May-20 19:33N 37°49' W 122°25'2 2.1
2016-May-20 18:33N 37°49' W 122°28'1 0.9
2016-May-20 17:33N 37°50' W 122°27'2 1.8
2016-May-20 16:33N 37°49' W 122°25'0 0.0
2016-May-20 01:27N 37°49' W 122°25'2 2.0
2016-May-20 00:33N 37°50' W 122°27'2 1.5
2016-May-19 23:33N 37°49' W 122°25'0 0.3
2016-May-19 22:33N 37°49' W 122°25'0 0.0
2016-May-19 21:33N 37°49' W 122°25'2 2.3
2016-May-19 20:33N 37°49' W 122°28'2 2.3
2016-May-19 19:33N 37°49' W 122°25'2 2.2
2016-May-19 18:34N 37°49' W 122°28'0 0.5
2016-May-19 17:33N 37°49' W 122°28'2 2.4
2016-May-19 16:33N 37°49' W 122°25'0 0.0
2016-May-19 01:33N 37°49' W 122°25'2 2.1
2016-May-19 00:33N 37°50' W 122°27'4 4.4
2016-May-18 23:33N 37°47' W 122°23'2 2.0
2016-May-18 22:33N 37°49' W 122°24'1 0.8
2016-May-18 21:33N 37°49' W 122°25'3 3.1
2016-May-18 20:33N 37°49' W 122°29'3 3.1
2016-May-18 19:33N 37°49' W 122°25'2 1.5
2016-May-18 18:33N 37°49' W 122°27'1 0.8
2016-May-18 17:33N 37°50' W 122°27'2 0.1
2016-May-18 01:13N 37°49' W 122°25'2 3.3
2016-May-18 00:33N 37°50' W 122°27'2 2.0
2016-May-17 23:33N 37°49' W 122°25'1 0.8
2016-May-17 22:33N 37°49' W 122°25'0 0.2
2016-May-17 21:33N 37°49' W 122°25'3 2.7
2016-May-17 20:33N 37°49' W 122°28'3 2.9
2016-May-17 19:33N 37°49' W 122°25'3 2.6
2016-May-17 18:33N 37°49' W 122°28'1 1.3
2016-May-17 17:33N 37°50' W 122°27'2 0.1
2016-May-17 01:14N 37°49' W 122°25'2 3.6
2016-May-17 00:34N 37°49' W 122°28'3 2.6
2016-May-16 23:33N 37°49' W 122°24'1 0.6
2016-May-16 22:33N 37°49' W 122°25'0 0.0
2016-May-16 21:33N 37°49' W 122°25'2 2.3
2016-May-16 20:34N 37°49' W 122°28'2 2.3
2016-May-16 19:34N 37°49' W 122°25'2 2.4
2016-May-16 18:33N 37°49' W 122°28'1 1.4
2016-May-16 17:34N 37°50' W 122°26'2 0.1
2016-May-16 01:18N 37°49' W 122°25'2 2.7
2016-May-16 00:34N 37°50' W 122°27'2 1.6
2016-May-15 23:34N 37°50' W 122°25'1 0.9
2016-May-15 22:33N 37°49' W 122°25'0 0.0
2016-May-15 21:33N 37°49' W 122°25'3 3.1
2016-May-15 20:34N 37°49' W 122°29'3 3.1
2016-May-15 19:34N 37°49' W 122°25'1 1.1
2016-May-15 18:34N 37°49' W 122°26'1 1.0
2016-May-15 17:33N 37°50' W 122°27'2 0.1
2016-May-15 03:33N 37°49' W 122°25'3 2.7
2016-May-15 02:33N 37°49' W 122°28'4 3.9
2016-May-15 01:33N 37°52' W 122°25'3 3.3
2016-May-15 00:33N 37°49' W 122°25'1 0.7
2016-May-14 23:33N 37°49' W 122°25'1 0.7
2016-May-14 22:33N 37°49' W 122°25'0 0.1
2016-May-14 21:33N 37°49' W 122°25'3 3.0
2016-May-14 20:33N 37°49' W 122°29'3 3.0
2016-May-14 19:33N 37°49' W 122°25'2 2.5
2016-May-14 18:33N 37°49' W 122°28'1 1.0
2016-May-14 17:33N 37°50' W 122°27'2 1.8
2016-May-14 16:33N 37°49' W 122°25'0 0.0
2016-May-14 01:07N 37°49' W 122°25'  

Dump ship's entire track history